sensor_id;sensor_type;location;lat;lon;timestamp;P1;durP1;ratioP1;P2;durP2;ratioP2
80392;SDS011;69719;45.544;10.218;2024-03-29T00:01:16;30.63;;;21.02;;
80392;SDS011;69719;45.544;10.218;2024-03-29T00:03:41;27.38;;;16.55;;
80392;SDS011;69719;45.544;10.218;2024-03-29T00:06:08;29.42;;;18.15;;
80392;SDS011;69719;45.544;10.218;2024-03-29T00:08:33;29.33;;;20.48;;
80392;SDS011;69719;45.544;10.218;2024-03-29T00:10:59;38.25;;;24.85;;
80392;SDS011;69719;45.544;10.218;2024-03-29T00:13:24;24.65;;;15.05;;
80392;SDS011;69719;45.544;10.218;2024-03-29T00:15:50;25.80;;;15.05;;
80392;SDS011;69719;45.544;10.218;2024-03-29T00:18:15;32.47;;;23.02;;
80392;SDS011;69719;45.544;10.218;2024-03-29T00:20:42;31.33;;;20.75;;
80392;SDS011;69719;45.544;10.218;2024-03-29T00:23:07;27.50;;;17.50;;
80392;SDS011;69719;45.544;10.218;2024-03-29T00:25:33;30.98;;;17.02;;
80392;SDS011;69719;45.544;10.218;2024-03-29T00:27:58;30.95;;;21.33;;
80392;SDS011;69719;45.544;10.218;2024-03-29T00:30:24;33.75;;;25.95;;
80392;SDS011;69719;45.544;10.218;2024-03-29T00:32:49;26.17;;;18.75;;
80392;SDS011;69719;45.544;10.218;2024-03-29T00:35:14;25.75;;;17.52;;
80392;SDS011;69719;45.544;10.218;2024-03-29T00:37:40;26.67;;;18.25;;
80392;SDS011;69719;45.544;10.218;2024-03-29T00:40:06;26.25;;;15.13;;
80392;SDS011;69719;45.544;10.218;2024-03-29T00:42:32;25.00;;;14.48;;
80392;SDS011;69719;45.544;10.218;2024-03-29T00:44:57;23.35;;;14.18;;
80392;SDS011;69719;45.544;10.218;2024-03-29T00:47:23;25.30;;;16.25;;
80392;SDS011;69719;45.544;10.218;2024-03-29T00:49:48;22.52;;;15.02;;
80392;SDS011;69719;45.544;10.218;2024-03-29T00:52:14;20.17;;;13.18;;
80392;SDS011;69719;45.544;10.218;2024-03-29T00:54:39;22.05;;;12.57;;
80392;SDS011;69719;45.544;10.218;2024-03-29T00:57:05;19.52;;;11.40;;
80392;SDS011;69719;45.544;10.218;2024-03-29T00:59:32;20.75;;;12.75;;
80392;SDS011;69719;45.544;10.218;2024-03-29T01:01:57;21.13;;;11.10;;
80392;SDS011;69719;45.544;10.218;2024-03-29T01:04:23;17.27;;;10.38;;
80392;SDS011;69719;45.544;10.218;2024-03-29T01:06:48;20.10;;;11.30;;
80392;SDS011;69719;45.544;10.218;2024-03-29T01:09:13;19.10;;;11.27;;
80392;SDS011;69719;45.544;10.218;2024-03-29T01:11:39;19.13;;;9.20;;
80392;SDS011;69719;45.544;10.218;2024-03-29T01:14:05;13.95;;;6.75;;
80392;SDS011;69719;45.544;10.218;2024-03-29T01:16:31;16.65;;;6.28;;
80392;SDS011;69719;45.544;10.218;2024-03-29T01:18:58;9.07;;;4.72;;
80392;SDS011;69719;45.544;10.218;2024-03-29T01:21:24;16.35;;;5.70;;
80392;SDS011;69719;45.544;10.218;2024-03-29T01:23:50;14.60;;;4.97;;
80392;SDS011;69719;45.544;10.218;2024-03-29T01:26:16;11.52;;;5.00;;
80392;SDS011;69719;45.544;10.218;2024-03-29T01:28:42;8.00;;;4.20;;
80392;SDS011;69719;45.544;10.218;2024-03-29T01:31:08;9.20;;;3.70;;
80392;SDS011;69719;45.544;10.218;2024-03-29T01:33:34;12.48;;;4.00;;
80392;SDS011;69719;45.544;10.218;2024-03-29T01:36:03;12.65;;;4.25;;
80392;SDS011;69719;45.544;10.218;2024-03-29T01:38:29;11.65;;;4.05;;
80392;SDS011;69719;45.544;10.218;2024-03-29T01:40:55;7.72;;;3.75;;
80392;SDS011;69719;45.544;10.218;2024-03-29T01:43:20;13.93;;;3.75;;
80392;SDS011;69719;45.544;10.218;2024-03-29T01:45:47;6.53;;;3.45;;
80392;SDS011;69719;45.544;10.218;2024-03-29T01:48:14;9.27;;;3.78;;
80392;SDS011;69719;45.544;10.218;2024-03-29T01:50:41;9.18;;;3.67;;
80392;SDS011;69719;45.544;10.218;2024-03-29T01:53:07;9.60;;;3.53;;
80392;SDS011;69719;45.544;10.218;2024-03-29T01:55:34;9.43;;;3.95;;
80392;SDS011;69719;45.544;10.218;2024-03-29T01:58:01;12.23;;;4.15;;
80392;SDS011;69719;45.544;10.218;2024-03-29T02:00:27;7.50;;;3.30;;
80392;SDS011;69719;45.544;10.218;2024-03-29T02:02:55;10.65;;;3.53;;
80392;SDS011;69719;45.544;10.218;2024-03-29T02:05:22;9.27;;;3.50;;
80392;SDS011;69719;45.544;10.218;2024-03-29T02:07:47;12.07;;;4.20;;
80392;SDS011;69719;45.544;10.218;2024-03-29T02:10:14;14.20;;;8.20;;
80392;SDS011;69719;45.544;10.218;2024-03-29T02:12:40;19.60;;;12.57;;
80392;SDS011;69719;45.544;10.218;2024-03-29T02:15:05;23.17;;;13.68;;
80392;SDS011;69719;45.544;10.218;2024-03-29T02:17:31;25.38;;;15.30;;
80392;SDS011;69719;45.544;10.218;2024-03-29T02:19:57;20.67;;;12.98;;
80392;SDS011;69719;45.544;10.218;2024-03-29T02:22:23;20.23;;;9.93;;
80392;SDS011;69719;45.544;10.218;2024-03-29T02:24:50;8.10;;;5.20;;
80392;SDS011;69719;45.544;10.218;2024-03-29T02:27:17;11.80;;;4.18;;
80392;SDS011;69719;45.544;10.218;2024-03-29T02:29:42;10.15;;;4.68;;
80392;SDS011;69719;45.544;10.218;2024-03-29T02:32:08;11.55;;;4.63;;
80392;SDS011;69719;45.544;10.218;2024-03-29T02:34:33;12.65;;;4.07;;
80392;SDS011;69719;45.544;10.218;2024-03-29T02:36:59;14.10;;;4.13;;
80392;SDS011;69719;45.544;10.218;2024-03-29T02:39:24;9.55;;;4.07;;
80392;SDS011;69719;45.544;10.218;2024-03-29T02:41:50;8.10;;;3.90;;
80392;SDS011;69719;45.544;10.218;2024-03-29T02:44:16;9.75;;;4.65;;
80392;SDS011;69719;45.544;10.218;2024-03-29T02:46:42;10.68;;;4.10;;
80392;SDS011;69719;45.544;10.218;2024-03-29T02:49:08;9.20;;;4.60;;
80392;SDS011;69719;45.544;10.218;2024-03-29T02:51:37;9.68;;;3.65;;
80392;SDS011;69719;45.544;10.218;2024-03-29T02:54:02;9.60;;;3.45;;
80392;SDS011;69719;45.544;10.218;2024-03-29T02:56:28;12.00;;;3.13;;
80392;SDS011;69719;45.544;10.218;2024-03-29T02:58:54;9.13;;;2.63;;
80392;SDS011;69719;45.544;10.218;2024-03-29T03:01:20;10.20;;;3.35;;
80392;SDS011;69719;45.544;10.218;2024-03-29T03:03:45;7.22;;;2.70;;
80392;SDS011;69719;45.544;10.218;2024-03-29T03:06:11;10.90;;;2.75;;
80392;SDS011;69719;45.544;10.218;2024-03-29T03:08:37;9.85;;;3.47;;
80392;SDS011;69719;45.544;10.218;2024-03-29T03:11:21;8.75;;;2.58;;
80392;SDS011;69719;45.544;10.218;2024-03-29T03:13:46;7.43;;;2.60;;
80392;SDS011;69719;45.544;10.218;2024-03-29T03:16:12;8.48;;;2.75;;
80392;SDS011;69719;45.544;10.218;2024-03-29T03:18:37;11.15;;;2.65;;
80392;SDS011;69719;45.544;10.218;2024-03-29T03:21:03;9.25;;;3.35;;
80392;SDS011;69719;45.544;10.218;2024-03-29T03:23:31;9.27;;;2.70;;
80392;SDS011;69719;45.544;10.218;2024-03-29T03:26:00;9.23;;;2.88;;
80392;SDS011;69719;45.544;10.218;2024-03-29T03:28:28;7.15;;;2.70;;
80392;SDS011;69719;45.544;10.218;2024-03-29T03:30:54;10.98;;;2.90;;
80392;SDS011;69719;45.544;10.218;2024-03-29T03:33:20;10.98;;;4.13;;
80392;SDS011;69719;45.544;10.218;2024-03-29T03:35:46;15.75;;;6.97;;
80392;SDS011;69719;45.544;10.218;2024-03-29T03:38:12;16.02;;;9.82;;
80392;SDS011;69719;45.544;10.218;2024-03-29T03:40:38;17.15;;;11.50;;
80392;SDS011;69719;45.544;10.218;2024-03-29T03:43:07;19.15;;;11.90;;
80392;SDS011;69719;45.544;10.218;2024-03-29T03:45:37;22.33;;;13.18;;
80392;SDS011;69719;45.544;10.218;2024-03-29T03:48:04;18.67;;;11.10;;
80392;SDS011;69719;45.544;10.218;2024-03-29T03:50:32;17.42;;;9.85;;
80392;SDS011;69719;45.544;10.218;2024-03-29T03:52:57;17.15;;;10.05;;
80392;SDS011;69719;45.544;10.218;2024-03-29T03:55:23;20.50;;;9.98;;
80392;SDS011;69719;45.544;10.218;2024-03-29T03:57:49;17.90;;;10.60;;
80392;SDS011;69719;45.544;10.218;2024-03-29T04:00:15;16.73;;;11.00;;
80392;SDS011;69719;45.544;10.218;2024-03-29T04:02:41;17.45;;;11.13;;
80392;SDS011;69719;45.544;10.218;2024-03-29T04:05:07;21.17;;;11.65;;
80392;SDS011;69719;45.544;10.218;2024-03-29T04:07:32;18.42;;;11.65;;
80392;SDS011;69719;45.544;10.218;2024-03-29T04:09:58;20.02;;;11.63;;
80392;SDS011;69719;45.544;10.218;2024-03-29T04:12:23;20.00;;;11.07;;
80392;SDS011;69719;45.544;10.218;2024-03-29T04:14:49;17.05;;;10.80;;
80392;SDS011;69719;45.544;10.218;2024-03-29T04:17:14;21.67;;;11.70;;
80392;SDS011;69719;45.544;10.218;2024-03-29T04:19:40;16.48;;;10.77;;
80392;SDS011;69719;45.544;10.218;2024-03-29T04:22:05;19.00;;;10.90;;
80392;SDS011;69719;45.544;10.218;2024-03-29T04:24:31;19.48;;;10.23;;
80392;SDS011;69719;45.544;10.218;2024-03-29T04:26:56;21.23;;;10.38;;
80392;SDS011;69719;45.544;10.218;2024-03-29T04:29:22;20.33;;;10.00;;
80392;SDS011;69719;45.544;10.218;2024-03-29T04:31:48;20.23;;;11.18;;
80392;SDS011;69719;45.544;10.218;2024-03-29T04:34:13;15.90;;;10.48;;
80392;SDS011;69719;45.544;10.218;2024-03-29T04:36:38;17.25;;;10.27;;
80392;SDS011;69719;45.544;10.218;2024-03-29T04:39:04;17.23;;;10.98;;
80392;SDS011;69719;45.544;10.218;2024-03-29T04:41:29;22.80;;;10.77;;
80392;SDS011;69719;45.544;10.218;2024-03-29T04:43:59;20.92;;;10.93;;
80392;SDS011;69719;45.544;10.218;2024-03-29T04:46:31;25.40;;;10.57;;
80392;SDS011;69719;45.544;10.218;2024-03-29T04:48:57;22.58;;;10.70;;
80392;SDS011;69719;45.544;10.218;2024-03-29T04:51:23;19.90;;;10.70;;
80392;SDS011;69719;45.544;10.218;2024-03-29T04:53:48;22.25;;;12.25;;
80392;SDS011;69719;45.544;10.218;2024-03-29T04:56:14;26.05;;;11.38;;
80392;SDS011;69719;45.544;10.218;2024-03-29T04:58:40;18.55;;;9.85;;
80392;SDS011;69719;45.544;10.218;2024-03-29T05:01:05;19.02;;;10.50;;
80392;SDS011;69719;45.544;10.218;2024-03-29T05:03:32;22.45;;;11.00;;
80392;SDS011;69719;45.544;10.218;2024-03-29T05:05:57;21.63;;;11.23;;
80392;SDS011;69719;45.544;10.218;2024-03-29T05:08:23;23.08;;;12.23;;
80392;SDS011;69719;45.544;10.218;2024-03-29T05:10:49;23.35;;;10.93;;
80392;SDS011;69719;45.544;10.218;2024-03-29T05:13:15;18.75;;;11.80;;
80392;SDS011;69719;45.544;10.218;2024-03-29T05:15:42;19.75;;;12.50;;
80392;SDS011;69719;45.544;10.218;2024-03-29T05:18:08;20.63;;;11.73;;
80392;SDS011;69719;45.544;10.218;2024-03-29T05:20:33;22.50;;;11.85;;
80392;SDS011;69719;45.544;10.218;2024-03-29T05:22:59;23.63;;;13.63;;
80392;SDS011;69719;45.544;10.218;2024-03-29T05:25:25;21.67;;;13.25;;
80392;SDS011;69719;45.544;10.218;2024-03-29T05:27:51;24.33;;;14.45;;
80392;SDS011;69719;45.544;10.218;2024-03-29T05:30:17;23.33;;;13.93;;
80392;SDS011;69719;45.544;10.218;2024-03-29T05:32:42;31.80;;;15.93;;
80392;SDS011;69719;45.544;10.218;2024-03-29T05:35:09;23.58;;;15.57;;
80392;SDS011;69719;45.544;10.218;2024-03-29T05:37:35;27.70;;;18.90;;
80392;SDS011;69719;45.544;10.218;2024-03-29T05:40:02;31.15;;;20.95;;
80392;SDS011;69719;45.544;10.218;2024-03-29T05:42:30;34.95;;;23.63;;
80392;SDS011;69719;45.544;10.218;2024-03-29T05:44:57;36.30;;;26.02;;
80392;SDS011;69719;45.544;10.218;2024-03-29T05:47:23;34.95;;;26.38;;
80392;SDS011;69719;45.544;10.218;2024-03-29T05:49:48;36.80;;;27.90;;
80392;SDS011;69719;45.544;10.218;2024-03-29T05:52:14;38.75;;;29.50;;
80392;SDS011;69719;45.544;10.218;2024-03-29T05:54:40;37.75;;;29.05;;
80392;SDS011;69719;45.544;10.218;2024-03-29T05:57:06;39.35;;;28.42;;
80392;SDS011;69719;45.544;10.218;2024-03-29T05:59:33;44.10;;;30.35;;
80392;SDS011;69719;45.544;10.218;2024-03-29T06:01:59;39.28;;;28.50;;
80392;SDS011;69719;45.544;10.218;2024-03-29T06:04:24;37.20;;;28.60;;
80392;SDS011;69719;45.544;10.218;2024-03-29T06:06:57;36.53;;;27.17;;
80392;SDS011;69719;45.544;10.218;2024-03-29T06:09:25;34.95;;;24.27;;
80392;SDS011;69719;45.544;10.218;2024-03-29T06:11:52;33.50;;;24.92;;
80392;SDS011;69719;45.544;10.218;2024-03-29T06:14:19;38.38;;;24.88;;
80392;SDS011;69719;45.544;10.218;2024-03-29T06:17:03;33.00;;;24.17;;
80392;SDS011;69719;45.544;10.218;2024-03-29T06:19:47;30.88;;;21.95;;
80392;SDS011;69719;45.544;10.218;2024-03-29T06:22:13;33.17;;;22.85;;
80392;SDS011;69719;45.544;10.218;2024-03-29T06:24:39;30.35;;;21.95;;
80392;SDS011;69719;45.544;10.218;2024-03-29T06:27:05;31.88;;;20.75;;
80392;SDS011;69719;45.544;10.218;2024-03-29T06:29:30;29.20;;;20.17;;
80392;SDS011;69719;45.544;10.218;2024-03-29T06:31:56;30.15;;;18.98;;
80392;SDS011;69719;45.544;10.218;2024-03-29T06:34:22;27.13;;;19.15;;
80392;SDS011;69719;45.544;10.218;2024-03-29T06:36:47;30.65;;;20.17;;
80392;SDS011;69719;45.544;10.218;2024-03-29T06:39:13;30.02;;;20.55;;
80392;SDS011;69719;45.544;10.218;2024-03-29T06:41:38;30.67;;;20.40;;
80392;SDS011;69719;45.544;10.218;2024-03-29T06:44:04;30.60;;;20.23;;
80392;SDS011;69719;45.544;10.218;2024-03-29T06:46:29;31.42;;;19.63;;
80392;SDS011;69719;45.544;10.218;2024-03-29T06:48:55;29.67;;;19.85;;
80392;SDS011;69719;45.544;10.218;2024-03-29T06:51:20;27.30;;;19.52;;
80392;SDS011;69719;45.544;10.218;2024-03-29T06:53:46;27.05;;;17.77;;
80392;SDS011;69719;45.544;10.218;2024-03-29T06:56:11;25.88;;;16.00;;
80392;SDS011;69719;45.544;10.218;2024-03-29T06:58:37;27.48;;;17.42;;
80392;SDS011;69719;45.544;10.218;2024-03-29T07:01:02;27.88;;;17.60;;
80392;SDS011;69719;45.544;10.218;2024-03-29T07:03:28;28.00;;;15.60;;
80392;SDS011;69719;45.544;10.218;2024-03-29T07:05:55;25.27;;;15.55;;
80392;SDS011;69719;45.544;10.218;2024-03-29T07:08:20;25.27;;;14.95;;
80392;SDS011;69719;45.544;10.218;2024-03-29T07:10:45;24.65;;;15.07;;
80392;SDS011;69719;45.544;10.218;2024-03-29T07:13:11;26.83;;;15.40;;
80392;SDS011;69719;45.544;10.218;2024-03-29T07:15:37;23.63;;;14.60;;
80392;SDS011;69719;45.544;10.218;2024-03-29T07:18:03;28.60;;;15.60;;
80392;SDS011;69719;45.544;10.218;2024-03-29T07:20:28;27.17;;;15.00;;
80392;SDS011;69719;45.544;10.218;2024-03-29T07:22:54;28.40;;;16.48;;
80392;SDS011;69719;45.544;10.218;2024-03-29T07:25:20;27.33;;;15.40;;
80392;SDS011;69719;45.544;10.218;2024-03-29T07:27:48;25.88;;;17.20;;
80392;SDS011;69719;45.544;10.218;2024-03-29T07:30:15;29.15;;;17.90;;
80392;SDS011;69719;45.544;10.218;2024-03-29T07:32:41;28.35;;;17.70;;
80392;SDS011;69719;45.544;10.218;2024-03-29T07:35:07;28.60;;;17.73;;
80392;SDS011;69719;45.544;10.218;2024-03-29T07:37:32;27.50;;;16.92;;
80392;SDS011;69719;45.544;10.218;2024-03-29T07:39:58;30.92;;;19.00;;
80392;SDS011;69719;45.544;10.218;2024-03-29T07:42:23;27.25;;;18.33;;
80392;SDS011;69719;45.544;10.218;2024-03-29T07:44:49;27.48;;;15.35;;
80392;SDS011;69719;45.544;10.218;2024-03-29T07:47:18;28.15;;;14.07;;
80392;SDS011;69719;45.544;10.218;2024-03-29T07:49:44;22.17;;;10.43;;
80392;SDS011;69719;45.544;10.218;2024-03-29T07:52:10;20.85;;;11.43;;
80392;SDS011;69719;45.544;10.218;2024-03-29T07:54:36;23.00;;;11.05;;
80392;SDS011;69719;45.544;10.218;2024-03-29T07:57:01;20.48;;;11.07;;
80392;SDS011;69719;45.544;10.218;2024-03-29T07:59:27;19.50;;;10.25;;
80392;SDS011;69719;45.544;10.218;2024-03-29T08:01:53;21.33;;;10.80;;
80392;SDS011;69719;45.544;10.218;2024-03-29T08:04:20;22.85;;;10.23;;
80392;SDS011;69719;45.544;10.218;2024-03-29T08:06:46;21.00;;;6.72;;
80392;SDS011;69719;45.544;10.218;2024-03-29T08:09:11;16.83;;;7.88;;
80392;SDS011;69719;45.544;10.218;2024-03-29T08:11:39;17.38;;;7.32;;
80392;SDS011;69719;45.544;10.218;2024-03-29T08:14:05;14.55;;;5.40;;
80392;SDS011;69719;45.544;10.218;2024-03-29T08:16:31;16.60;;;6.28;;
80392;SDS011;69719;45.544;10.218;2024-03-29T08:18:56;17.90;;;7.13;;
80392;SDS011;69719;45.544;10.218;2024-03-29T08:21:23;20.50;;;7.47;;
80392;SDS011;69719;45.544;10.218;2024-03-29T08:23:48;20.95;;;7.95;;
80392;SDS011;69719;45.544;10.218;2024-03-29T08:26:15;21.33;;;6.97;;
80392;SDS011;69719;45.544;10.218;2024-03-29T08:28:41;14.35;;;5.55;;
80392;SDS011;69719;45.544;10.218;2024-03-29T08:31:13;19.00;;;6.13;;
80392;SDS011;69719;45.544;10.218;2024-03-29T08:33:39;20.38;;;8.10;;
80392;SDS011;69719;45.544;10.218;2024-03-29T08:36:05;16.95;;;5.75;;
80392;SDS011;69719;45.544;10.218;2024-03-29T08:38:31;14.38;;;5.07;;
80392;SDS011;69719;45.544;10.218;2024-03-29T08:40:57;14.93;;;4.75;;
80392;SDS011;69719;45.544;10.218;2024-03-29T08:43:23;11.88;;;4.00;;
80392;SDS011;69719;45.544;10.218;2024-03-29T08:45:48;16.60;;;5.38;;
80392;SDS011;69719;45.544;10.218;2024-03-29T08:48:14;12.45;;;4.13;;
80392;SDS011;69719;45.544;10.218;2024-03-29T08:50:39;16.38;;;6.07;;
80392;SDS011;69719;45.544;10.218;2024-03-29T08:53:05;12.43;;;3.95;;
80392;SDS011;69719;45.544;10.218;2024-03-29T08:55:31;14.30;;;3.75;;
80392;SDS011;69719;45.544;10.218;2024-03-29T08:57:57;10.90;;;4.22;;
80392;SDS011;69719;45.544;10.218;2024-03-29T09:00:24;14.35;;;3.28;;
80392;SDS011;69719;45.544;10.218;2024-03-29T09:02:50;13.50;;;3.70;;
80392;SDS011;69719;45.544;10.218;2024-03-29T09:05:16;11.23;;;3.35;;
80392;SDS011;69719;45.544;10.218;2024-03-29T09:07:42;11.88;;;3.53;;
80392;SDS011;69719;45.544;10.218;2024-03-29T09:10:07;16.70;;;4.22;;
80392;SDS011;69719;45.544;10.218;2024-03-29T09:12:33;13.23;;;3.83;;
80392;SDS011;69719;45.544;10.218;2024-03-29T09:14:59;14.60;;;4.32;;
80392;SDS011;69719;45.544;10.218;2024-03-29T09:17:25;8.32;;;3.30;;
80392;SDS011;69719;45.544;10.218;2024-03-29T09:19:51;24.98;;;3.63;;
80392;SDS011;69719;45.544;10.218;2024-03-29T09:22:17;10.07;;;3.42;;
80392;SDS011;69719;45.544;10.218;2024-03-29T09:24:43;13.02;;;3.65;;
80392;SDS011;69719;45.544;10.218;2024-03-29T09:27:09;9.82;;;3.75;;
80392;SDS011;69719;45.544;10.218;2024-03-29T09:29:34;15.77;;;3.35;;
80392;SDS011;69719;45.544;10.218;2024-03-29T09:32:00;11.27;;;2.78;;
80392;SDS011;69719;45.544;10.218;2024-03-29T09:34:28;14.20;;;3.80;;
80392;SDS011;69719;45.544;10.218;2024-03-29T09:36:55;13.13;;;3.40;;
80392;SDS011;69719;45.544;10.218;2024-03-29T09:39:21;15.48;;;3.88;;
80392;SDS011;69719;45.544;10.218;2024-03-29T09:41:46;13.90;;;3.65;;
80392;SDS011;69719;45.544;10.218;2024-03-29T09:44:12;14.43;;;3.78;;
80392;SDS011;69719;45.544;10.218;2024-03-29T09:46:38;15.55;;;3.53;;
80392;SDS011;69719;45.544;10.218;2024-03-29T09:49:06;17.50;;;3.95;;
80392;SDS011;69719;45.544;10.218;2024-03-29T09:51:32;16.90;;;4.90;;
80392;SDS011;69719;45.544;10.218;2024-03-29T09:53:59;15.98;;;3.78;;
80392;SDS011;69719;45.544;10.218;2024-03-29T09:56:27;23.73;;;4.97;;
80392;SDS011;69719;45.544;10.218;2024-03-29T09:58:53;13.35;;;3.70;;
80392;SDS011;69719;45.544;10.218;2024-03-29T10:01:22;20.20;;;4.00;;
80392;SDS011;69719;45.544;10.218;2024-03-29T10:03:51;20.17;;;3.92;;
80392;SDS011;69719;45.544;10.218;2024-03-29T10:06:18;20.80;;;4.25;;
80392;SDS011;69719;45.544;10.218;2024-03-29T10:08:45;16.42;;;3.58;;
80392;SDS011;69719;45.544;10.218;2024-03-29T10:11:13;21.00;;;3.80;;
80392;SDS011;69719;45.544;10.218;2024-03-29T10:13:41;21.25;;;5.70;;
80392;SDS011;69719;45.544;10.218;2024-03-29T10:16:08;17.90;;;4.00;;
80392;SDS011;69719;45.544;10.218;2024-03-29T10:18:37;22.38;;;4.85;;
80392;SDS011;69719;45.544;10.218;2024-03-29T10:21:05;20.27;;;4.95;;
80392;SDS011;69719;45.544;10.218;2024-03-29T10:23:33;14.40;;;3.35;;
80392;SDS011;69719;45.544;10.218;2024-03-29T10:26:02;19.20;;;4.25;;
80392;SDS011;69719;45.544;10.218;2024-03-29T10:28:32;17.65;;;3.58;;
80392;SDS011;69719;45.544;10.218;2024-03-29T10:31:04;20.83;;;4.85;;
80392;SDS011;69719;45.544;10.218;2024-03-29T10:33:30;18.33;;;4.30;;
80392;SDS011;69719;45.544;10.218;2024-03-29T10:35:57;16.05;;;3.72;;
80392;SDS011;69719;45.544;10.218;2024-03-29T10:38:25;17.80;;;4.78;;
80392;SDS011;69719;45.544;10.218;2024-03-29T10:40:53;22.98;;;5.10;;
80392;SDS011;69719;45.544;10.218;2024-03-29T10:43:19;15.20;;;3.22;;
80392;SDS011;69719;45.544;10.218;2024-03-29T10:45:46;15.98;;;4.22;;
80392;SDS011;69719;45.544;10.218;2024-03-29T10:48:14;13.35;;;3.92;;
80392;SDS011;69719;45.544;10.218;2024-03-29T10:50:41;9.77;;;3.30;;
80392;SDS011;69719;45.544;10.218;2024-03-29T10:53:08;19.10;;;3.50;;
80392;SDS011;69719;45.544;10.218;2024-03-29T10:55:36;14.77;;;3.28;;
80392;SDS011;69719;45.544;10.218;2024-03-29T10:58:06;19.67;;;3.55;;
80392;SDS011;69719;45.544;10.218;2024-03-29T11:00:41;16.90;;;3.20;;
80392;SDS011;69719;45.544;10.218;2024-03-29T11:05:49;14.55;;;3.28;;
80392;SDS011;69719;45.544;10.218;2024-03-29T11:08:19;20.33;;;3.95;;
80392;SDS011;69719;45.544;10.218;2024-03-29T11:10:48;15.23;;;4.65;;
80392;SDS011;69719;45.544;10.218;2024-03-29T11:13:27;15.73;;;3.17;;
80392;SDS011;69719;45.544;10.218;2024-03-29T11:16:19;18.73;;;3.60;;
80392;SDS011;69719;45.544;10.218;2024-03-29T11:18:45;14.32;;;2.63;;
80392;SDS011;69719;45.544;10.218;2024-03-29T11:21:14;17.38;;;3.58;;
80392;SDS011;69719;45.544;10.218;2024-03-29T11:23:52;15.90;;;3.65;;
80392;SDS011;69719;45.544;10.218;2024-03-29T11:26:19;16.20;;;3.20;;
80392;SDS011;69719;45.544;10.218;2024-03-29T11:28:52;19.63;;;4.38;;
80392;SDS011;69719;45.544;10.218;2024-03-29T11:31:21;16.58;;;3.47;;
80392;SDS011;69719;45.544;10.218;2024-03-29T11:33:50;17.77;;;3.53;;
80392;SDS011;69719;45.544;10.218;2024-03-29T11:36:18;13.63;;;3.33;;
80392;SDS011;69719;45.544;10.218;2024-03-29T11:38:52;21.40;;;4.93;;
80392;SDS011;69719;45.544;10.218;2024-03-29T11:43:50;15.57;;;3.35;;
80392;SDS011;69719;45.544;10.218;2024-03-29T11:46:17;10.90;;;3.17;;
80392;SDS011;69719;45.544;10.218;2024-03-29T11:48:43;14.90;;;3.30;;
80392;SDS011;69719;45.544;10.218;2024-03-29T11:51:12;15.35;;;3.50;;
80392;SDS011;69719;45.544;10.218;2024-03-29T11:53:40;15.68;;;3.58;;
80392;SDS011;69719;45.544;10.218;2024-03-29T11:56:07;13.82;;;3.50;;
80392;SDS011;69719;45.544;10.218;2024-03-29T11:58:33;15.90;;;4.53;;
80392;SDS011;69719;45.544;10.218;2024-03-29T12:00:59;16.08;;;3.22;;
80392;SDS011;69719;45.544;10.218;2024-03-29T12:03:26;20.23;;;6.32;;
80392;SDS011;69719;45.544;10.218;2024-03-29T12:05:54;19.70;;;4.00;;
80392;SDS011;69719;45.544;10.218;2024-03-29T12:08:25;15.85;;;3.30;;
80392;SDS011;69719;45.544;10.218;2024-03-29T12:10:51;16.33;;;3.25;;
80392;SDS011;69719;45.544;10.218;2024-03-29T12:13:17;13.15;;;3.55;;
80392;SDS011;69719;45.544;10.218;2024-03-29T12:15:43;14.82;;;3.70;;
80392;SDS011;69719;45.544;10.218;2024-03-29T12:18:09;21.38;;;5.45;;
80392;SDS011;69719;45.544;10.218;2024-03-29T12:20:36;14.00;;;3.25;;
80392;SDS011;69719;45.544;10.218;2024-03-29T12:23:03;28.55;;;10.35;;
80392;SDS011;69719;45.544;10.218;2024-03-29T12:25:32;13.75;;;3.35;;
80392;SDS011;69719;45.544;10.218;2024-03-29T12:27:59;20.25;;;3.47;;
80392;SDS011;69719;45.544;10.218;2024-03-29T12:30:25;31.30;;;8.00;;
80392;SDS011;69719;45.544;10.218;2024-03-29T12:33:00;20.40;;;6.35;;
80392;SDS011;69719;45.544;10.218;2024-03-29T12:35:27;28.08;;;6.32;;
80392;SDS011;69719;45.544;10.218;2024-03-29T12:37:54;20.77;;;5.28;;
80392;SDS011;69719;45.544;10.218;2024-03-29T12:40:21;35.63;;;6.28;;
80392;SDS011;69719;45.544;10.218;2024-03-29T12:42:51;28.73;;;7.88;;
80392;SDS011;69719;45.544;10.218;2024-03-29T12:45:17;23.63;;;5.22;;
80392;SDS011;69719;45.544;10.218;2024-03-29T12:47:47;20.60;;;4.82;;
80392;SDS011;69719;45.544;10.218;2024-03-29T12:50:24;14.48;;;4.15;;
80392;SDS011;69719;45.544;10.218;2024-03-29T12:52:57;18.08;;;4.55;;
80392;SDS011;69719;45.544;10.218;2024-03-29T12:55:24;13.13;;;3.22;;
80392;SDS011;69719;45.544;10.218;2024-03-29T12:57:55;16.67;;;4.50;;
80392;SDS011;69719;45.544;10.218;2024-03-29T13:00:21;14.90;;;3.40;;
80392;SDS011;69719;45.544;10.218;2024-03-29T13:02:47;18.35;;;4.15;;
80392;SDS011;69719;45.544;10.218;2024-03-29T13:05:12;27.85;;;6.43;;
80392;SDS011;69719;45.544;10.218;2024-03-29T13:07:38;36.15;;;9.02;;
80392;SDS011;69719;45.544;10.218;2024-03-29T13:10:04;27.77;;;6.63;;
80392;SDS011;69719;45.544;10.218;2024-03-29T13:12:41;25.67;;;6.80;;
80392;SDS011;69719;45.544;10.218;2024-03-29T13:17:50;20.98;;;4.25;;
80392;SDS011;69719;45.544;10.218;2024-03-29T13:20:17;17.02;;;5.00;;
80392;SDS011;69719;45.544;10.218;2024-03-29T13:22:44;18.67;;;3.95;;
80392;SDS011;69719;45.544;10.218;2024-03-29T13:25:11;14.73;;;3.30;;
80392;SDS011;69719;45.544;10.218;2024-03-29T13:27:38;24.85;;;5.40;;
80392;SDS011;69719;45.544;10.218;2024-03-29T13:30:05;21.05;;;4.43;;
80392;SDS011;69719;45.544;10.218;2024-03-29T13:32:32;17.67;;;3.45;;
80392;SDS011;69719;45.544;10.218;2024-03-29T13:35:01;35.10;;;8.73;;
80392;SDS011;69719;45.544;10.218;2024-03-29T13:37:30;37.05;;;9.98;;
80392;SDS011;69719;45.544;10.218;2024-03-29T13:39:56;23.75;;;5.10;;
80392;SDS011;69719;45.544;10.218;2024-03-29T13:42:21;13.48;;;3.88;;
80392;SDS011;69719;45.544;10.218;2024-03-29T13:44:51;22.05;;;3.78;;
80392;SDS011;69719;45.544;10.218;2024-03-29T13:47:17;25.02;;;7.28;;
80392;SDS011;69719;45.544;10.218;2024-03-29T13:49:43;31.95;;;7.75;;
80392;SDS011;69719;45.544;10.218;2024-03-29T13:52:11;23.83;;;6.43;;
80392;SDS011;69719;45.544;10.218;2024-03-29T13:54:42;39.22;;;11.43;;
80392;SDS011;69719;45.544;10.218;2024-03-29T13:57:09;39.53;;;9.98;;
80392;SDS011;69719;45.544;10.218;2024-03-29T13:59:34;41.42;;;10.55;;
80392;SDS011;69719;45.544;10.218;2024-03-29T14:02:00;37.88;;;10.85;;
80392;SDS011;69719;45.544;10.218;2024-03-29T14:04:26;25.30;;;6.30;;
80392;SDS011;69719;45.544;10.218;2024-03-29T14:06:51;20.58;;;5.35;;
80392;SDS011;69719;45.544;10.218;2024-03-29T14:09:17;18.10;;;4.22;;
80392;SDS011;69719;45.544;10.218;2024-03-29T14:11:43;12.88;;;3.95;;
80392;SDS011;69719;45.544;10.218;2024-03-29T14:14:09;15.63;;;3.55;;
80392;SDS011;69719;45.544;10.218;2024-03-29T14:16:35;15.85;;;3.78;;
80392;SDS011;69719;45.544;10.218;2024-03-29T14:19:02;56.50;;;16.20;;
80392;SDS011;69719;45.544;10.218;2024-03-29T14:21:28;37.05;;;10.15;;
80392;SDS011;69719;45.544;10.218;2024-03-29T14:23:54;32.80;;;9.27;;